Terminal Aerodrome Forecast
Issued by NWS Quad Cities IA IL

Home | Current Version | Previous Version | Text Only | Print | Product List | Glossary On
Versions: 1 2 3 4 5 6 7 8 9 10 11 12 13 14 15 16 17
000
FTUS43 KDVN 250913 AAB
TAFMLI
TAF AMD
KMLI 250913Z 2509/2606 19015G22KT P6SM -RA OVC010
     FM251100 24011KT 6SM -RA BR SCT008 BKN025
     FM251400 23013KT P6SM BKN015
     FM251600 23016G24KT P6SM BKN040=

USA.gov is the U.S. government's official web portal to all federal, state and local government web resources and services.